Time,TemperatureF,DewpointF,PressureIn,WindDirection,WindDirectionDegrees,WindSpeedMPH,WindSpeedGustMPH,Humidity,HourlyPrecipIn,Conditions,Clouds,dailyrainin,SoftwareType,DateUTC
2013-08-01 00:01:00,69.9,61.6,29.92,WSW,244,0.0,3.0,75,0.00,,---,0.00,VWS V14.01,2013-08-01 04:01:00,
2013-08-01 00:02:00,69.9,61.6,29.92,WSW,244,3.0,3.0,75,0.00,,---,0.00,VWS V14.01,2013-08-01 04:02:00,
2013-08-01 00:07:00,69.8,61.9,29.92,WSW,246,2.0,4.0,76,0.00,,---,0.00,VWS V14.01,2013-08-01 04:07:00,
2013-08-01 00:12:00,69.8,61.9,29.92,SW,233,0.0,4.0,76,0.00,,---,0.00,VWS V14.01,2013-08-01 04:12:00,
2013-08-01 00:17:00,69.8,61.9,29.92,WSW,238,1.0,4.0,76,0.00,,---,0.00,VWS V14.01,2013-08-01 04:17:00,
2013-08-01 00:22:00,69.8,61.9,29.92,WSW,238,2.0,4.0,76,0.00,,---,0.00,VWS V14.01,2013-08-01 04:22:00,
2013-08-01 00:27:00,69.8,61.9,29.93,WSW,238,0.0,4.0,76,0.00,,---,0.00,VWS V14.01,2013-08-01 04:27:00,
2013-08-01 00:32:00,69.8,61.9,29.93,NW,318,2.0,2.0,76,0.01,,---,0.01,VWS V14.01,2013-08-01 04:32:00,
2013-08-01 00:37:00,69.8,61.9,29.93,NW,306,0.0,6.0,76,0.10,,---,0.10,VWS V14.01,2013-08-01 04:37:00,
2013-08-01 00:42:00,69.8,61.9,29.93,WNW,290,0.0,6.0,76,0.11,,---,0.11,VWS V14.01,2013-08-01 04:42:00,
2013-08-01 00:47:00,69.8,62.3,29.93,WNW,290,0.0,6.0,77,0.11,,---,0.11,VWS V14.01,2013-08-01 04:47:00,
2013-08-01 00:52:00,69.8,62.3,29.93,West,280,1.0,6.0,77,0.11,,---,0.11,VWS V14.01,2013-08-01 04:52:00,
2013-08-01 00:57:00,69.8,62.3,29.93,NW,311,0.0,6.0,77,0.11,,---,0.11,VWS V14.01,2013-08-01 04:57:00,
2013-08-01 01:02:00,69.8,62.3,29.92,WNW,290,1.0,3.0,77,0.11,,---,0.11,VWS V14.01,2013-08-01 05:02:00,
2013-08-01 01:07:00,69.8,62.3,29.92,WNW,297,2.0,3.0,77,0.11,,---,0.11,VWS V14.01,2013-08-01 05:07:00,
2013-08-01 01:12:00,69.8,62.6,29.92,WNW,297,2.0,3.0,78,0.11,,---,0.11,VWS V14.01,2013-08-01 05:12:00,
2013-08-01 01:17:00,69.8,62.6,29.92,WNW,297,0.0,3.0,78,0.11,,---,0.11,VWS V14.01,2013-08-01 05:17:00,
2013-08-01 01:22:00,69.8,62.6,29.93,WNW,297,3.0,3.0,78,0.11,,---,0.11,VWS V14.01,2013-08-01 05:22:00,
2013-08-01 01:27:00,69.6,62.4,29.93,West,281,2.0,3.0,78,0.11,,---,0.11,VWS V14.01,2013-08-01 05:27:00,
2013-08-01 01:32:00,69.6,62.4,29.92,West,279,1.0,4.0,78,0.11,,---,0.11,VWS V14.01,2013-08-01 05:32:00,
2013-08-01 01:37:00,69.6,62.4,29.92,West,274,0.0,4.0,78,0.11,,---,0.11,VWS V14.01,2013-08-01 05:37:00,
2013-08-01 01:42:00,69.4,62.2,29.92,West,274,2.0,4.0,78,0.11,,---,0.11,VWS V14.01,2013-08-01 05:42:00,
2013-08-01 01:47:00,69.3,62.2,29.92,West,274,3.0,4.0,78,0.11,,---,0.11,VWS V14.01,2013-08-01 05:47:00,
2013-08-01 01:52:00,69.3,62.2,29.92,West,274,2.0,4.0,78,0.11,,---,0.11,VWS V14.01,2013-08-01 05:52:00,
2013-08-01 01:57:00,69.1,62.3,29.92,West,274,3.0,4.0,79,0.11,,---,0.11,VWS V14.01,2013-08-01 05:57:00,
2013-08-01 02:02:00,69.1,62.3,29.91,West,274,2.0,3.0,79,0.00,,---,0.11,VWS V14.01,2013-08-01 06:02:00,
2013-08-01 02:07:00,69.1,62.3,29.92,West,274,4.0,4.0,79,0.00,,---,0.11,VWS V14.01,2013-08-01 06:07:00,
2013-08-01 02:12:00,68.9,62.1,29.92,West,279,3.0,5.0,79,0.00,,---,0.11,VWS V14.01,2013-08-01 06:12:00,
2013-08-01 02:17:00,68.9,62.1,29.92,West,275,0.0,5.0,79,0.00,,---,0.11,VWS V14.01,2013-08-01 06:17:00,
2013-08-01 02:22:00,68.8,62.4,29.92,West,275,1.0,5.0,80,0.00,,---,0.11,VWS V14.01,2013-08-01 06:22:00,
2013-08-01 02:27:00,68.8,62.4,29.91,West,275,2.0,5.0,80,0.00,,---,0.11,VWS V14.01,2013-08-01 06:27:00,
2013-08-01 02:32:00,68.9,62.5,29.91,West,276,0.0,3.0,80,0.00,,---,0.11,VWS V14.01,2013-08-01 06:32:00,
2013-08-01 02:37:00,68.8,62.4,29.92,West,276,0.0,3.0,80,0.00,,---,0.11,VWS V14.01,2013-08-01 06:37:00,
2013-08-01 02:42:00,68.6,62.2,29.91,WNW,300,1.0,3.0,80,0.00,,---,0.11,VWS V14.01,2013-08-01 06:42:00,
2013-08-01 02:47:00,68.6,62.2,29.91,WNW,302,1.0,3.0,80,0.00,,---,0.11,VWS V14.01,2013-08-01 06:47:00,
2013-08-01 02:52:00,68.6,62.2,29.91,NW,313,0.0,3.0,80,0.00,,---,0.11,VWS V14.01,2013-08-01 06:52:00,
2013-08-01 02:57:00,68.6,62.2,29.91,NW,321,0.0,5.0,80,0.00,,---,0.11,VWS V14.01,2013-08-01 06:57:00,
2013-08-01 03:02:00,68.4,62.0,29.91,NW,322,1.0,3.0,80,0.00,,---,0.11,VWS V14.01,2013-08-01 07:02:00,
2013-08-01 03:07:00,68.3,61.9,29.91,NW,323,1.0,5.0,80,0.00,,---,0.11,VWS V14.01,2013-08-01 07:07:00,
2013-08-01 03:12:00,68.3,61.9,29.91,NW,305,1.0,5.0,80,0.00,,---,0.11,VWS V14.01,2013-08-01 07:12:00,
2013-08-01 03:17:00,68.1,61.7,29.91,NW,326,0.0,5.0,80,0.00,,---,0.11,VWS V14.01,2013-08-01 07:17:00,
2013-08-01 03:22:00,67.9,61.9,29.91,NW,319,0.0,5.0,81,0.00,,---,0.11,VWS V14.01,2013-08-01 07:22:00,
2013-08-01 03:27:00,67.9,61.9,29.91,NW,321,2.0,5.0,81,0.00,,---,0.11,VWS V14.01,2013-08-01 07:27:00,
2013-08-01 03:32:00,67.8,61.8,29.91,NW,313,3.0,3.0,81,0.00,,---,0.11,VWS V14.01,2013-08-01 07:32:00,
2013-08-01 03:37:00,67.8,61.8,29.91,NW,321,1.0,5.0,81,0.00,,---,0.11,VWS V14.01,2013-08-01 07:37:00,
2013-08-01 03:42:00,67.8,61.8,29.91,NW,321,1.0,5.0,81,0.00,,---,0.11,VWS V14.01,2013-08-01 07:42:00,
2013-08-01 03:47:00,67.6,61.6,29.91,NW,311,1.0,6.0,81,0.00,,---,0.11,VWS V14.01,2013-08-01 07:47:00,
2013-08-01 03:52:00,67.6,61.6,29.91,NW,323,2.0,6.0,81,0.00,,---,0.11,VWS V14.01,2013-08-01 07:52:00,
2013-08-01 03:57:00,67.4,61.4,29.91,NNW,327,1.0,6.0,81,0.00,,---,0.11,VWS V14.01,2013-08-01 07:57:00,
2013-08-01 04:02:00,67.3,61.3,29.91,NW,326,3.0,4.0,81,0.00,,---,0.11,VWS V14.01,2013-08-01 08:02:00,
2013-08-01 04:07:00,67.3,61.3,29.91,NNW,329,3.0,6.0,81,0.00,,---,0.11,VWS V14.01,2013-08-01 08:07:00,
2013-08-01 04:12:00,67.3,61.3,29.91,NW,304,0.0,6.0,81,0.00,,---,0.11,VWS V14.01,2013-08-01 08:12:00,
2013-08-01 04:17:00,67.1,61.1,29.91,NW,318,3.0,6.0,81,0.00,,---,0.11,VWS V14.01,2013-08-01 08:17:00,
2013-08-01 04:22:00,67.1,61.1,29.91,NW,307,2.0,6.0,81,0.00,,---,0.11,VWS V14.01,2013-08-01 08:22:00,
2013-08-01 04:27:00,66.9,60.9,29.92,NW,312,3.0,7.0,81,0.00,,---,0.11,VWS V14.01,2013-08-01 08:27:00,
2013-08-01 04:32:00,66.9,60.9,29.92,WNW,303,3.0,4.0,81,0.00,,---,0.11,VWS V14.01,2013-08-01 08:32:00,
2013-08-01 04:37:00,66.8,60.8,29.92,WNW,299,5.0,6.0,81,0.00,,---,0.11,VWS V14.01,2013-08-01 08:37:00,
2013-08-01 04:42:00,66.8,60.8,29.92,NNW,327,3.0,8.0,81,0.00,,---,0.11,VWS V14.01,2013-08-01 08:42:00,
2013-08-01 04:47:00,66.8,60.8,29.92,NW,315,2.0,8.0,81,0.00,,---,0.11,VWS V14.01,2013-08-01 08:47:00,
2013-08-01 04:53:00,66.6,60.6,29.92,NW,321,2.0,8.0,81,0.00,,---,0.11,VWS V14.01,2013-08-01 08:53:00,
2013-08-01 04:58:00,66.4,60.4,29.92,NNW,342,5.0,8.0,81,0.00,,---,0.11,VWS V14.01,2013-08-01 08:58:00,
2013-08-01 05:03:00,66.4,60.4,29.92,NW,312,2.0,5.0,81,0.00,,---,0.11,VWS V14.01,2013-08-01 09:03:00,
2013-08-01 05:08:00,66.4,60.4,29.92,North,5,0.0,5.0,81,0.00,,---,0.11,VWS V14.01,2013-08-01 09:08:00,
2013-08-01 05:14:00,66.3,60.3,29.92,NNW,344,3.0,6.0,81,0.00,,---,0.11,VWS V14.01,2013-08-01 09:14:00,
2013-08-01 05:19:00,66.3,60.7,29.92,WNW,294,3.0,6.0,82,0.00,,---,0.11,VWS V14.01,2013-08-01 09:19:00,
2013-08-01 05:24:00,66.3,60.7,29.92,NW,316,2.0,8.0,82,0.00,,---,0.11,VWS V14.01,2013-08-01 09:24:00,
2013-08-01 05:29:00,66.3,60.7,29.93,NNW,333,2.0,8.0,82,0.00,,---,0.11,VWS V14.01,2013-08-01 09:29:00,
2013-08-01 05:34:00,66.3,60.7,29.93,NW,317,2.0,6.0,82,0.00,,---,0.11,VWS V14.01,2013-08-01 09:34:00,
2013-08-01 05:40:00,66.1,60.5,29.93,NNW,340,4.0,7.0,82,0.00,,---,0.11,VWS V14.01,2013-08-01 09:40:00,
2013-08-01 05:45:00,66.0,60.3,29.93,NNW,346,3.0,7.0,82,0.00,,---,0.11,VWS V14.01,2013-08-01 09:45:00,
2013-08-01 05:50:00,65.8,60.2,29.93,NW,324,1.0,7.0,82,0.00,,---,0.11,VWS V14.01,2013-08-01 09:50:00,
2013-08-01 05:55:00,65.6,60.0,29.93,NW,319,2.0,7.0,82,0.00,,---,0.11,VWS V14.01,2013-08-01 09:55:00,
2013-08-01 06:00:00,65.6,60.0,29.93,NW,320,1.0,3.0,82,0.00,,---,0.11,VWS V14.01,2013-08-01 10:00:00,
2013-08-01 06:06:00,65.5,59.9,29.94,NNW,347,1.0,4.0,82,0.00,,---,0.11,VWS V14.01,2013-08-01 10:06:00,
2013-08-01 06:12:00,65.5,59.9,29.94,NNW,347,0.0,4.0,82,0.00,,---,0.11,VWS V14.01,2013-08-01 10:12:00,
2013-08-01 06:17:00,65.5,59.9,29.94,NNW,328,1.0,4.0,82,0.01,,---,0.12,VWS V14.01,2013-08-01 10:17:00,
2013-08-01 06:22:00,65.5,59.9,29.94,NW,323,0.0,4.0,82,0.01,,---,0.12,VWS V14.01,2013-08-01 10:22:00,
2013-08-01 06:27:00,65.5,59.9,29.94,WNW,288,0.0,5.0,82,0.01,,---,0.12,VWS V14.01,2013-08-01 10:27:00,
2013-08-01 06:32:00,65.5,59.9,29.94,WNW,295,1.0,1.0,82,0.01,,---,0.12,VWS V14.01,2013-08-01 10:32:00,
2013-08-01 06:38:00,65.5,59.9,29.94,NW,320,4.0,4.0,82,0.01,,---,0.12,VWS V14.01,2013-08-01 10:38:00,
2013-08-01 06:43:00,65.3,59.7,29.94,NW,309,2.0,5.0,82,0.01,,---,0.12,VWS V14.01,2013-08-01 10:43:00,
2013-08-01 06:48:00,65.2,59.6,29.94,WNW,286,0.0,5.0,82,0.01,,---,0.12,VWS V14.01,2013-08-01 10:48:00,
2013-08-01 06:53:00,65.2,59.6,29.94,WNW,297,1.0,6.0,82,0.01,,---,0.12,VWS V14.01,2013-08-01 10:53:00,
2013-08-01 06:59:00,65.2,59.9,29.95,NNW,333,0.0,6.0,83,0.01,,---,0.12,VWS V14.01,2013-08-01 10:59:00,
2013-08-01 07:04:00,65.2,59.9,29.95,NNW,328,0.0,4.0,83,0.01,,---,0.12,VWS V14.01,2013-08-01 11:04:00,
2013-08-01 07:09:00,65.2,59.9,29.94,NW,325,4.0,4.0,83,0.01,,---,0.12,VWS V14.01,2013-08-01 11:09:00,
2013-08-01 07:14:00,65.2,59.9,29.95,NNW,338,1.0,4.0,83,0.01,,---,0.12,VWS V14.01,2013-08-01 11:14:00,
2013-08-01 07:20:00,65.2,59.9,29.95,NNW,336,0.0,4.0,83,0.01,,---,0.12,VWS V14.01,2013-08-01 11:20:00,
2013-08-01 07:25:00,65.0,59.7,29.95,NNW,336,0.0,4.0,83,0.01,,---,0.12,VWS V14.01,2013-08-01 11:25:00,
2013-08-01 07:30:00,65.0,59.7,29.95,NNW,336,0.0,4.0,83,0.01,,---,0.12,VWS V14.01,2013-08-01 11:30:00,
2013-08-01 07:36:00,65.0,59.7,29.95,NNW,336,1.0,2.0,83,0.00,,---,0.12,VWS V14.01,2013-08-01 11:36:00,
2013-08-01 07:42:00,65.0,59.7,29.95,NNW,336,2.0,3.0,83,0.00,,---,0.12,VWS V14.01,2013-08-01 11:42:00,
2013-08-01 07:47:00,65.0,59.7,29.95,NNW,336,2.0,3.0,83,0.00,,---,0.12,VWS V14.01,2013-08-01 11:47:00,
2013-08-01 07:52:00,65.2,59.9,29.95,West,281,3.0,3.0,83,0.00,,---,0.12,VWS V14.01,2013-08-01 11:52:00,
2013-08-01 07:58:00,65.2,59.9,29.96,West,281,1.0,4.0,83,0.00,,---,0.12,VWS V14.01,2013-08-01 11:58:00,
2013-08-01 08:04:00,65.3,60.3,29.96,WNW,285,2.0,4.0,84,0.00,,---,0.12,VWS V14.01,2013-08-01 12:04:00,
2013-08-01 08:09:00,65.3,60.3,29.96,WNW,283,2.0,5.0,84,0.00,,---,0.12,VWS V14.01,2013-08-01 12:09:00,
2013-08-01 08:14:00,65.5,60.5,29.96,West,281,0.0,5.0,84,0.00,,---,0.12,VWS V14.01,2013-08-01 12:14:00,
2013-08-01 08:19:00,65.6,61.0,29.96,WNW,302,1.0,5.0,85,0.00,,---,0.12,VWS V14.01,2013-08-01 12:19:00,
2013-08-01 08:25:00,65.6,60.6,29.95,West,280,1.0,5.0,84,0.00,,---,0.12,VWS V14.01,2013-08-01 12:25:00,
2013-08-01 08:30:00,65.6,60.6,29.96,WNW,282,0.0,0.0,84,0.00,,---,0.12,VWS V14.01,2013-08-01 12:30:00,
2013-08-01 08:36:00,65.6,60.6,29.96,NNW,344,0.0,3.0,84,0.00,,---,0.12,VWS V14.01,2013-08-01 12:36:00,
2013-08-01 08:41:00,65.6,60.6,29.96,NW,313,1.0,4.0,84,0.00,,---,0.12,VWS V14.01,2013-08-01 12:41:00,
2013-08-01 08:46:00,65.8,60.8,29.96,WNW,297,0.0,4.0,84,0.00,,---,0.12,VWS V14.01,2013-08-01 12:46:00,
2013-08-01 08:51:00,66.0,61.0,29.96,NW,304,1.0,5.0,84,0.00,,---,0.12,VWS V14.01,2013-08-01 12:51:00,
2013-08-01 08:57:00,65.8,60.5,29.96,NNW,348,3.0,6.0,83,0.00,,---,0.12,VWS V14.01,2013-08-01 12:57:00,
2013-08-01 09:03:00,65.8,60.8,29.96,West,270,1.0,5.0,84,0.00,,---,0.12,VWS V14.01,2013-08-01 13:03:00,
2013-08-01 09:08:00,66.1,61.1,29.96,WNW,299,1.0,5.0,84,0.00,,---,0.12,VWS V14.01,2013-08-01 13:08:00,
2013-08-01 09:13:00,66.3,61.3,29.96,WNW,294,2.0,5.0,84,0.00,,---,0.12,VWS V14.01,2013-08-01 13:13:00,
2013-08-01 09:18:00,66.8,62.2,29.97,NW,325,7.0,7.0,85,0.00,,---,0.12,VWS V14.01,2013-08-01 13:18:00,
2013-08-01 09:23:00,66.6,61.6,29.97,NNW,329,1.0,7.0,84,0.00,,---,0.12,VWS V14.01,2013-08-01 13:23:00,
2013-08-01 09:28:00,66.8,61.8,29.97,NNW,331,4.0,7.0,84,0.00,,---,0.12,VWS V14.01,2013-08-01 13:28:00,
2013-08-01 09:33:00,66.9,61.6,29.97,North,350,5.0,7.0,83,0.00,,---,0.12,VWS V14.01,2013-08-01 13:33:00,
2013-08-01 09:38:00,66.9,61.2,29.97,NW,320,0.0,9.0,82,0.00,,---,0.12,VWS V14.01,2013-08-01 13:38:00,
2013-08-01 09:43:00,67.3,61.6,29.97,WNW,302,1.0,9.0,82,0.00,,---,0.12,VWS V14.01,2013-08-01 13:43:00,
2013-08-01 09:49:00,67.6,61.6,29.97,NW,307,1.0,9.0,81,0.00,,---,0.12,VWS V14.01,2013-08-01 13:49:00,
2013-08-01 09:54:00,67.9,61.9,29.97,NW,309,2.0,9.0,81,0.00,,---,0.12,VWS V14.01,2013-08-01 13:54:00,
2013-08-01 09:59:00,67.9,61.5,29.96,NNW,340,4.0,9.0,80,0.00,,---,0.12,VWS V14.01,2013-08-01 13:59:00,
2013-08-01 10:04:00,67.8,61.1,29.97,North,350,0.0,6.0,79,0.00,,---,0.12,VWS V14.01,2013-08-01 14:04:00,
2013-08-01 10:09:00,68.4,61.6,29.97,NNW,346,0.0,6.0,79,0.00,,---,0.12,VWS V14.01,2013-08-01 14:09:00,
2013-08-01 10:14:00,68.6,61.1,29.97,NNW,348,4.0,6.0,77,0.00,,---,0.12,VWS V14.01,2013-08-01 14:14:00,
2013-08-01 10:19:00,69.3,61.4,29.97,NNW,336,3.0,6.0,76,0.00,,---,0.12,VWS V14.01,2013-08-01 14:19:00,
2013-08-01 10:24:00,69.8,60.8,29.97,NW,317,0.0,7.0,73,0.00,,---,0.12,VWS V14.01,2013-08-01 14:24:00,
2013-08-01 10:30:00,69.8,59.6,29.97,WNW,298,3.0,7.0,70,0.00,,---,0.12,VWS V14.01,2013-08-01 14:30:00,
2013-08-01 10:35:00,69.6,58.6,29.97,North,355,5.0,7.0,68,0.00,,---,0.12,VWS V14.01,2013-08-01 14:35:00,
2013-08-01 10:41:00,69.9,58.5,29.97,NNW,330,5.0,7.0,67,0.00,,---,0.12,VWS V14.01,2013-08-01 14:41:00,
2013-08-01 10:46:00,70.6,58.3,29.97,NNW,327,1.0,7.0,65,0.00,,---,0.12,VWS V14.01,2013-08-01 14:46:00,
2013-08-01 10:52:00,71.1,57.9,29.97,North,9,2.0,7.0,63,0.00,,---,0.12,VWS V14.01,2013-08-01 14:52:00,
2013-08-01 10:57:00,71.3,57.2,29.97,NW,311,6.0,7.0,61,0.00,,---,0.12,VWS V14.01,2013-08-01 14:57:00,
2013-08-01 11:02:00,71.6,57.0,29.97,NW,321,2.0,5.0,60,0.00,,---,0.12,VWS V14.01,2013-08-01 15:02:00,
2013-08-01 11:07:00,72.0,57.4,29.97,NNE,13,6.0,6.0,60,0.00,,---,0.12,VWS V14.01,2013-08-01 15:07:00,
2013-08-01 11:12:00,72.8,56.7,29.97,North,355,6.0,7.0,57,0.00,,---,0.12,VWS V14.01,2013-08-01 15:12:00,
2013-08-01 11:18:00,73.2,57.1,29.97,NNW,343,7.0,7.0,57,0.00,,---,0.12,VWS V14.01,2013-08-01 15:18:00,
2013-08-01 11:23:00,74.0,57.3,29.97,WNW,296,1.0,7.0,56,0.00,,---,0.12,VWS V14.01,2013-08-01 15:23:00,
2013-08-01 11:28:00,75.3,57.5,29.97,WNW,296,0.0,7.0,54,0.00,,---,0.12,VWS V14.01,2013-08-01 15:28:00,
2013-08-01 11:33:00,75.4,56.0,29.98,NW,306,4.0,6.0,51,0.00,,---,0.12,VWS V14.01,2013-08-01 15:33:00,
2013-08-01 11:38:00,74.9,56.1,29.97,NW,304,0.0,6.0,52,0.00,,---,0.12,VWS V14.01,2013-08-01 15:38:00,
2013-08-01 11:43:00,75.1,55.2,29.97,NW,319,4.0,7.0,50,0.00,,---,0.12,VWS V14.01,2013-08-01 15:43:00,
2013-08-01 11:48:00,75.3,54.8,29.98,NW,323,0.0,8.0,49,0.00,,---,0.12,VWS V14.01,2013-08-01 15:48:00,
2013-08-01 11:53:00,75.6,55.1,29.98,West,276,0.0,8.0,49,0.00,,---,0.12,VWS V14.01,2013-08-01 15:53:00,
2013-08-01 11:58:00,75.4,55.5,29.98,NNW,338,4.0,8.0,50,0.00,,---,0.12,VWS V14.01,2013-08-01 15:58:00,
2013-08-01 12:03:00,75.4,54.9,29.98,NNW,336,2.0,7.0,49,0.00,,---,0.12,VWS V14.01,2013-08-01 16:03:00,
2013-08-01 12:09:00,75.8,53.6,29.97,NNW,331,2.0,7.0,46,0.00,,---,0.12,VWS V14.01,2013-08-01 16:09:00,
2013-08-01 12:14:00,76.3,54.0,29.98,West,281,3.0,7.0,46,0.00,,---,0.12,VWS V14.01,2013-08-01 16:14:00,
2013-08-01 12:19:00,76.1,54.4,29.98,West,276,3.0,8.0,47,0.00,,---,0.12,VWS V14.01,2013-08-01 16:19:00,
2013-08-01 12:24:00,75.8,54.2,29.98,NNW,335,5.0,9.0,47,0.00,,---,0.12,VWS V14.01,2013-08-01 16:24:00,
2013-08-01 12:29:00,76.0,53.8,29.98,NW,316,7.0,9.0,46,0.00,,---,0.12,VWS V14.01,2013-08-01 16:29:00,
2013-08-01 12:35:00,76.7,52.5,29.98,WNW,292,1.0,5.0,43,0.00,,---,0.12,VWS V14.01,2013-08-01 16:35:00,
2013-08-01 12:40:00,77.6,54.0,29.97,North,355,3.0,5.0,44,0.00,,---,0.12,VWS V14.01,2013-08-01 16:40:00,
2013-08-01 12:45:00,78.3,52.0,29.98,West,263,2.0,5.0,40,0.00,,---,0.12,VWS V14.01,2013-08-01 16:45:00,
2013-08-01 12:50:00,78.1,49.7,29.98,WNW,296,2.0,8.0,37,0.00,,---,0.12,VWS V14.01,2013-08-01 16:50:00,
2013-08-01 12:55:00,78.1,50.5,29.97,WNW,294,2.0,8.0,38,0.00,,---,0.12,VWS V14.01,2013-08-01 16:55:00,
2013-08-01 13:01:00,78.5,50.8,29.97,NW,311,1.0,3.0,38,0.00,,---,0.12,VWS V14.01,2013-08-01 17:01:00,
2013-08-01 13:06:00,78.6,49.4,29.97,NNW,330,0.0,5.0,36,0.00,,---,0.12,VWS V14.01,2013-08-01 17:06:00,
2013-08-01 13:11:00,78.5,47.8,29.97,NNW,327,3.0,8.0,34,0.00,,---,0.12,VWS V14.01,2013-08-01 17:11:00,
2013-08-01 13:16:00,78.6,48.7,29.97,West,269,4.0,8.0,35,0.00,,---,0.12,VWS V14.01,2013-08-01 17:16:00,
2013-08-01 13:21:00,78.6,45.5,29.97,WNW,303,1.0,13.0,31,0.00,,---,0.12,VWS V14.01,2013-08-01 17:21:00,
2013-08-01 13:27:00,78.6,48.7,29.97,WNW,296,3.0,13.0,35,0.00,,---,0.12,VWS V14.01,2013-08-01 17:27:00,
2013-08-01 13:32:00,79.2,46.8,29.97,WNW,298,6.0,7.0,32,0.00,,---,0.12,VWS V14.01,2013-08-01 17:32:00,
2013-08-01 13:37:00,79.4,47.0,29.97,NW,311,4.0,7.0,32,0.00,,---,0.12,VWS V14.01,2013-08-01 17:37:00,
2013-08-01 13:42:00,79.8,44.8,29.97,North,355,7.0,10.0,29,0.00,,---,0.12,VWS V14.01,2013-08-01 17:42:00,
2013-08-01 13:47:00,79.6,44.6,29.97,West,269,10.0,10.0,29,0.00,,---,0.12,VWS V14.01,2013-08-01 17:47:00,
2013-08-01 13:52:00,78.6,46.3,29.97,WNW,289,4.0,10.0,32,0.00,,---,0.12,VWS V14.01,2013-08-01 17:52:00,
2013-08-01 13:58:00,78.8,42.0,29.97,WNW,302,6.0,10.0,27,0.00,,---,0.12,VWS V14.01,2013-08-01 17:58:00,
2013-08-01 14:03:00,79.4,43.5,29.96,West,265,8.0,9.0,28,0.00,,---,0.12,VWS V14.01,2013-08-01 18:03:00,
2013-08-01 14:08:00,79.6,43.7,29.96,NNW,347,1.0,9.0,28,0.00,,---,0.12,VWS V14.01,2013-08-01 18:08:00,
2013-08-01 14:13:00,79.6,42.7,29.96,NW,304,4.0,11.0,27,0.00,,---,0.12,VWS V14.01,2013-08-01 18:13:00,
2013-08-01 14:19:00,79.8,43.8,29.96,West,270,6.0,11.0,28,0.00,,---,0.12,VWS V14.01,2013-08-01 18:19:00,
2013-08-01 14:24:00,79.8,40.9,29.96,NW,309,3.0,11.0,25,0.00,,---,0.12,VWS V14.01,2013-08-01 18:24:00,
2013-08-01 14:29:00,79.8,39.8,29.96,West,281,6.0,17.0,24,0.00,,---,0.12,VWS V14.01,2013-08-01 18:29:00,
2013-08-01 14:34:00,79.4,41.6,29.96,West,273,5.0,10.0,26,0.00,,---,0.12,VWS V14.01,2013-08-01 18:34:00,
2013-08-01 14:39:00,79.6,42.7,29.96,NW,325,2.0,10.0,27,0.00,,---,0.12,VWS V14.01,2013-08-01 18:39:00,
2013-08-01 14:44:00,79.6,41.7,29.96,WNW,284,4.0,10.0,26,0.00,,---,0.12,VWS V14.01,2013-08-01 18:44:00,
2013-08-01 14:49:00,79.9,41.0,29.96,West,269,9.0,16.0,25,0.00,,---,0.12,VWS V14.01,2013-08-01 18:49:00,
2013-08-01 14:54:00,80.1,41.1,29.95,WNW,294,1.0,16.0,25,0.00,,---,0.12,VWS V14.01,2013-08-01 18:54:00,
2013-08-01 15:00:00,80.5,42.5,29.96,West,269,14.0,16.0,26,0.00,,---,0.12,VWS V14.01,2013-08-01 19:00:00,
2013-08-01 15:05:00,79.9,43.0,29.95,WSW,254,7.0,14.0,27,0.00,,---,0.12,VWS V14.01,2013-08-01 19:05:00,
2013-08-01 15:10:00,79.8,43.8,29.95,WNW,290,4.0,14.0,28,0.00,,---,0.12,VWS V14.01,2013-08-01 19:10:00,
2013-08-01 15:15:00,79.6,42.7,29.95,NW,317,4.0,14.0,27,0.00,,---,0.12,VWS V14.01,2013-08-01 19:15:00,
2013-08-01 15:20:00,80.5,40.4,29.95,West,281,4.0,14.0,24,0.00,,---,0.12,VWS V14.01,2013-08-01 19:20:00,
2013-08-01 15:25:00,80.3,43.3,29.95,WNW,284,6.0,15.0,27,0.00,,---,0.12,VWS V14.01,2013-08-01 19:25:00,
2013-08-01 15:30:00,80.1,42.2,29.95,NW,315,6.0,6.0,26,0.00,,---,0.12,VWS V14.01,2013-08-01 19:30:00,
2013-08-01 15:35:00,80.1,43.1,29.95,WNW,300,3.0,9.0,27,0.00,,---,0.12,VWS V14.01,2013-08-01 19:35:00,
2013-08-01 15:41:00,80.5,41.5,29.94,NW,306,3.0,9.0,25,0.00,,---,0.12,VWS V14.01,2013-08-01 19:41:00,
2013-08-01 15:46:00,80.7,41.7,29.94,WNW,283,5.0,13.0,25,0.00,,---,0.12,VWS V14.01,2013-08-01 19:46:00,
2013-08-01 15:51:00,80.7,41.7,29.94,NW,307,2.0,15.0,25,0.00,,---,0.12,VWS V14.01,2013-08-01 19:51:00,
2013-08-01 15:56:00,80.3,40.3,29.94,WNW,300,9.0,16.0,24,0.00,,---,0.12,VWS V14.01,2013-08-01 19:56:00,
2013-08-01 16:01:00,79.8,41.9,29.94,West,271,6.0,10.0,26,0.00,,---,0.12,VWS V14.01,2013-08-01 20:01:00,
2013-08-01 16:06:00,79.4,43.5,29.94,West,275,2.0,12.0,28,0.00,,---,0.12,VWS V14.01,2013-08-01 20:06:00,
2013-08-01 16:12:00,79.2,41.4,29.94,NW,310,4.0,12.0,26,0.00,,---,0.12,VWS V14.01,2013-08-01 20:12:00,
2013-08-01 16:17:00,79.9,36.5,29.94,WNW,302,11.0,14.0,21,0.00,,---,0.12,VWS V14.01,2013-08-01 20:17:00,
2013-08-01 16:22:00,80.5,37.0,29.94,WSW,257,10.0,14.0,21,0.00,,---,0.12,VWS V14.01,2013-08-01 20:22:00,
2013-08-01 16:27:00,80.3,35.6,29.94,NW,308,10.0,14.0,20,0.00,,---,0.12,VWS V14.01,2013-08-01 20:27:00,
2013-08-01 16:32:00,80.1,36.7,29.94,WNW,300,5.0,11.0,21,0.00,,---,0.12,VWS V14.01,2013-08-01 20:32:00,
2013-08-01 16:37:00,80.5,37.0,29.94,WNW,287,6.0,11.0,21,0.00,,---,0.12,VWS V14.01,2013-08-01 20:37:00,
2013-08-01 16:42:00,80.3,38.0,29.94,NW,314,2.0,11.0,22,0.00,,---,0.12,VWS V14.01,2013-08-01 20:42:00,
2013-08-01 16:47:00,80.7,39.5,29.94,NNW,331,1.0,11.0,23,0.00,,---,0.12,VWS V14.01,2013-08-01 20:47:00,
2013-08-01 16:52:00,81.4,36.5,29.94,WNW,302,6.0,11.0,20,0.00,,---,0.12,VWS V14.01,2013-08-01 20:52:00,
2013-08-01 16:57:00,81.6,36.7,29.93,West,276,4.0,16.0,20,0.00,,---,0.12,VWS V14.01,2013-08-01 20:57:00,
2013-08-01 17:02:00,81.2,36.4,29.94,WNW,300,2.0,11.0,20,0.00,,---,0.12,VWS V14.01,2013-08-01 21:02:00,
2013-08-01 17:07:00,81.2,37.6,29.94,WNW,301,6.0,11.0,21,0.00,,---,0.12,VWS V14.01,2013-08-01 21:07:00,
2013-08-01 17:12:00,80.5,34.5,29.94,NNW,335,6.0,14.0,19,0.00,,---,0.12,VWS V14.01,2013-08-01 21:12:00,
2013-08-01 17:17:00,80.5,34.5,29.94,NNW,342,5.0,16.0,19,0.00,,---,0.12,VWS V14.01,2013-08-01 21:17:00,
2013-08-01 17:22:00,80.7,34.7,29.94,WNW,290,3.0,16.0,19,0.00,,---,0.12,VWS V14.01,2013-08-01 21:22:00,
2013-08-01 17:27:00,81.1,37.5,29.94,WNW,295,6.0,16.0,21,0.00,,---,0.12,VWS V14.01,2013-08-01 21:27:00,
2013-08-01 17:32:00,81.1,36.3,29.94,NW,319,9.0,9.0,20,0.00,,---,0.12,VWS V14.01,2013-08-01 21:32:00,
2013-08-01 17:37:00,80.9,36.1,29.94,NW,317,5.0,14.0,20,0.00,,---,0.12,VWS V14.01,2013-08-01 21:37:00,
2013-08-01 17:42:00,80.5,37.0,29.94,NW,321,6.0,14.0,21,0.00,,---,0.12,VWS V14.01,2013-08-01 21:42:00,
2013-08-01 17:47:00,80.3,36.8,29.93,West,277,4.0,14.0,21,0.00,,---,0.12,VWS V14.01,2013-08-01 21:47:00,
2013-08-01 17:52:00,80.3,34.3,29.93,NW,311,7.0,14.0,19,0.00,,---,0.12,VWS V14.01,2013-08-01 21:52:00,
2013-08-01 17:57:00,80.1,35.5,29.93,North,349,8.0,22.0,20,0.00,,---,0.12,VWS V14.01,2013-08-01 21:57:00,
2013-08-01 18:03:00,80.1,35.5,29.93,North,360,12.0,12.0,20,0.00,,---,0.12,VWS V14.01,2013-08-01 22:03:00,
2013-08-01 18:08:00,79.9,35.3,29.93,WNW,299,10.0,12.0,20,0.00,,---,0.12,VWS V14.01,2013-08-01 22:08:00,
2013-08-01 18:13:00,79.9,35.3,29.93,NNW,336,5.0,12.0,20,0.00,,---,0.12,VWS V14.01,2013-08-01 22:13:00,
2013-08-01 18:18:00,79.9,37.7,29.93,WNW,294,2.0,12.0,22,0.00,,---,0.12,VWS V14.01,2013-08-01 22:18:00,
2013-08-01 18:23:00,79.8,36.4,29.93,WNW,292,3.0,12.0,21,0.00,,---,0.12,VWS V14.01,2013-08-01 22:23:00,
2013-08-01 18:28:00,79.2,38.2,29.93,West,270,5.0,12.0,23,0.00,,---,0.12,VWS V14.01,2013-08-01 22:28:00,
2013-08-01 18:33:00,79.0,38.1,29.93,NNW,334,9.0,10.0,23,0.00,,---,0.12,VWS V14.01,2013-08-01 22:33:00,
2013-08-01 18:38:00,79.2,39.3,29.93,WNW,289,4.0,10.0,24,0.00,,---,0.12,VWS V14.01,2013-08-01 22:38:00,
2013-08-01 18:43:00,79.4,39.5,29.93,NW,315,4.0,10.0,24,0.00,,---,0.12,VWS V14.01,2013-08-01 22:43:00,
2013-08-01 18:48:00,79.2,39.3,29.93,WNW,284,2.0,10.0,24,0.00,,---,0.12,VWS V14.01,2013-08-01 22:48:00,
2013-08-01 18:54:00,78.8,40.0,29.93,NW,308,0.0,10.0,25,0.00,,---,0.12,VWS V14.01,2013-08-01 22:54:00,
2013-08-01 18:59:00,79.0,40.2,29.92,WNW,298,5.0,10.0,25,0.00,,---,0.12,VWS V14.01,2013-08-01 22:59:00,
2013-08-01 19:04:00,79.4,40.5,29.92,NW,316,2.0,5.0,25,0.00,,---,0.12,VWS V14.01,2013-08-01 23:04:00,
2013-08-01 19:09:00,79.6,41.7,29.92,NNW,338,6.0,6.0,26,0.00,,---,0.12,VWS V14.01,2013-08-01 23:09:00,
2013-08-01 19:14:00,79.6,41.7,29.92,WNW,302,3.0,9.0,26,0.00,,---,0.12,VWS V14.01,2013-08-01 23:14:00,
2013-08-01 19:19:00,79.4,40.5,29.92,NW,304,4.0,9.0,25,0.00,,---,0.12,VWS V14.01,2013-08-01 23:19:00,
2013-08-01 19:24:00,79.2,42.4,29.92,WNW,298,1.0,9.0,27,0.00,,---,0.12,VWS V14.01,2013-08-01 23:24:00,
2013-08-01 19:29:00,78.8,42.0,29.92,West,280,3.0,9.0,27,0.00,,---,0.12,VWS V14.01,2013-08-01 23:29:00,
2013-08-01 19:34:00,78.5,41.8,29.92,West,279,2.0,7.0,27,0.00,,---,0.12,VWS V14.01,2013-08-01 23:34:00,
2013-08-01 19:39:00,78.3,42.5,29.92,WNW,296,7.0,7.0,28,0.00,,---,0.12,VWS V14.01,2013-08-01 23:39:00,
2013-08-01 19:44:00,78.1,42.4,29.92,NW,304,0.0,7.0,28,0.00,,---,0.12,VWS V14.01,2013-08-01 23:44:00,
2013-08-01 19:49:00,78.1,42.4,29.92,WNW,283,3.0,7.0,28,0.00,,---,0.12,VWS V14.01,2013-08-01 23:49:00,
2013-08-01 19:54:00,77.7,42.9,29.91,WNW,287,2.0,7.0,29,0.00,,---,0.12,VWS V14.01,2013-08-01 23:54:00,
2013-08-01 20:00:00,77.4,44.4,29.91,WNW,286,0.0,7.0,31,0.00,,---,0.12,VWS V14.01,2013-08-02 00:00:00,
2013-08-01 20:05:00,77.0,44.1,29.92,WNW,289,2.0,4.0,31,0.00,,---,0.12,VWS V14.01,2013-08-02 00:05:00,
2013-08-01 20:10:00,76.7,43.8,29.92,West,279,3.0,4.0,31,0.00,,---,0.12,VWS V14.01,2013-08-02 00:10:00,
2013-08-01 20:15:00,76.5,44.5,29.92,NW,306,2.0,6.0,32,0.00,,---,0.12,VWS V14.01,2013-08-02 00:15:00,
2013-08-01 20:20:00,76.1,44.9,29.92,WNW,282,3.0,6.0,33,0.00,,---,0.12,VWS V14.01,2013-08-02 00:20:00,
2013-08-01 20:25:00,75.8,44.7,29.92,West,277,2.0,6.0,33,0.00,,---,0.12,VWS V14.01,2013-08-02 00:25:00,
2013-08-01 20:30:00,75.6,45.3,29.92,WNW,300,2.0,6.0,34,0.00,,---,0.12,VWS V14.01,2013-08-02 00:30:00,
2013-08-01 20:35:00,75.3,45.0,29.92,WNW,290,2.0,5.0,34,0.00,,---,0.12,VWS V14.01,2013-08-02 00:35:00,
2013-08-01 20:41:00,74.9,45.4,29.92,West,275,3.0,5.0,35,0.00,,---,0.12,VWS V14.01,2013-08-02 00:41:00,
2013-08-01 20:46:00,74.6,45.9,29.93,WNW,300,1.0,5.0,36,0.00,,---,0.12,VWS V14.01,2013-08-02 00:46:00,
2013-08-01 20:51:00,74.4,46.5,29.93,West,267,5.0,5.0,37,0.00,,---,0.12,VWS V14.01,2013-08-02 00:51:00,
2013-08-01 20:56:00,74.0,46.8,29.93,WNW,286,4.0,6.0,38,0.00,,---,0.12,VWS V14.01,2013-08-02 00:56:00,
2013-08-01 21:01:00,73.7,46.5,29.93,WNW,286,1.0,2.0,38,0.00,,---,0.12,VWS V14.01,2013-08-02 01:01:00,
2013-08-01 21:07:00,73.5,46.4,29.93,West,276,0.0,5.0,38,0.00,,---,0.12,VWS V14.01,2013-08-02 01:07:00,
2013-08-01 21:12:00,73.3,46.9,29.93,West,278,2.0,5.0,39,0.00,,---,0.12,VWS V14.01,2013-08-02 01:12:00,
2013-08-01 21:17:00,73.2,46.8,29.93,WNW,282,2.0,5.0,39,0.00,,---,0.12,VWS V14.01,2013-08-02 01:17:00,
2013-08-01 21:22:00,73.0,47.3,29.93,WNW,292,1.0,5.0,40,0.00,,---,0.12,VWS V14.01,2013-08-02 01:22:00,
2013-08-01 21:27:00,72.8,47.1,29.93,West,274,1.0,5.0,40,0.00,,---,0.12,VWS V14.01,2013-08-02 01:27:00,
2013-08-01 21:32:00,72.7,47.0,29.93,West,273,2.0,4.0,40,0.00,,---,0.12,VWS V14.01,2013-08-02 01:32:00,
2013-08-01 21:37:00,72.5,47.5,29.93,West,273,2.0,4.0,41,0.00,,---,0.12,VWS V14.01,2013-08-02 01:37:00,
2013-08-01 21:42:00,72.1,47.8,29.94,West,281,1.0,4.0,42,0.00,,---,0.12,VWS V14.01,2013-08-02 01:42:00,
2013-08-01 21:47:00,72.0,47.7,29.94,West,280,1.0,4.0,42,0.00,,---,0.12,VWS V14.01,2013-08-02 01:47:00,
2013-08-01 21:52:00,71.8,48.1,29.94,West,280,0.0,4.0,43,0.00,,---,0.12,VWS V14.01,2013-08-02 01:52:00,
2013-08-01 21:57:00,71.6,48.6,29.93,West,280,2.0,4.0,44,0.00,,---,0.12,VWS V14.01,2013-08-02 01:57:00,
2013-08-01 22:03:00,71.5,49.1,29.93,West,278,2.0,3.0,45,0.00,,---,0.12,VWS V14.01,2013-08-02 02:03:00,
2013-08-01 22:08:00,71.3,49.5,29.93,West,278,2.0,3.0,46,0.00,,---,0.12,VWS V14.01,2013-08-02 02:08:00,
2013-08-01 22:13:00,70.9,49.7,29.94,West,278,2.0,3.0,47,0.00,,---,0.12,VWS V14.01,2013-08-02 02:13:00,
2013-08-01 22:18:00,70.6,50.0,29.94,West,275,2.0,4.0,48,0.00,,---,0.12,VWS V14.01,2013-08-02 02:18:00,
2013-08-01 22:23:00,70.1,50.1,29.94,WSW,243,3.0,5.0,49,0.00,,---,0.12,VWS V14.01,2013-08-02 02:23:00,
2013-08-01 22:28:00,69.9,49.9,29.94,WSW,244,4.0,5.0,49,0.00,,---,0.12,VWS V14.01,2013-08-02 02:28:00,
2013-08-01 22:33:00,69.6,50.2,29.94,WSW,251,3.0,4.0,50,0.00,,---,0.12,VWS V14.01,2013-08-02 02:33:00,
2013-08-01 22:38:00,69.6,50.2,29.94,West,261,4.0,4.0,50,0.00,,---,0.12,VWS V14.01,2013-08-02 02:38:00,
2013-08-01 22:43:00,69.6,49.6,29.94,WSW,255,2.0,4.0,49,0.00,,---,0.12,VWS V14.01,2013-08-02 02:43:00,
2013-08-01 22:48:00,69.6,49.6,29.94,WSW,254,2.0,4.0,49,0.00,,---,0.12,VWS V14.01,2013-08-02 02:48:00,
2013-08-01 22:54:00,69.8,49.2,29.94,WSW,254,2.0,4.0,48,0.00,,---,0.12,VWS V14.01,2013-08-02 02:54:00,
2013-08-01 22:59:00,69.8,49.2,29.94,WSW,255,2.0,4.0,48,0.00,,---,0.12,VWS V14.01,2013-08-02 02:59:00,
2013-08-01 23:04:00,69.8,49.8,29.94,WSW,255,2.0,3.0,49,0.00,,---,0.12,VWS V14.01,2013-08-02 03:04:00,
2013-08-01 23:09:00,69.6,49.6,29.94,WSW,255,3.0,5.0,49,0.00,,---,0.12,VWS V14.01,2013-08-02 03:09:00,
2013-08-01 23:15:00,69.6,49.6,29.94,West,259,3.0,5.0,49,0.00,,---,0.12,VWS V14.01,2013-08-02 03:15:00,
2013-08-01 23:19:00,69.6,49.6,29.93,West,263,2.0,5.0,49,0.00,,---,0.12,VWS V14.01,2013-08-02 03:19:00,
2013-08-01 23:25:00,69.4,50.0,29.94,West,263,3.0,5.0,50,0.00,,---,0.12,VWS V14.01,2013-08-02 03:25:00,
2013-08-01 23:30:00,69.3,49.9,29.94,West,263,4.0,5.0,50,0.00,,---,0.12,VWS V14.01,2013-08-02 03:30:00,
2013-08-01 23:36:00,69.3,49.9,29.94,West,263,3.0,5.0,50,0.00,,---,0.12,VWS V14.01,2013-08-02 03:36:00,
2013-08-01 23:41:00,69.1,49.7,29.94,West,269,5.0,5.0,50,0.00,,---,0.12,VWS V14.01,2013-08-02 03:41:00,
2013-08-01 23:46:00,69.1,50.2,29.95,West,261,3.0,6.0,51,0.00,,---,0.12,VWS V14.01,2013-08-02 03:46:00,
2013-08-01 23:51:00,68.8,50.5,29.95,West,269,4.0,6.0,52,0.00,,---,0.12,VWS V14.01,2013-08-02 03:51:00,
2013-08-01 23:56:00,68.6,50.8,29.95,West,270,4.0,6.0,53,0.00,,---,0.12,VWS V14.01,2013-08-02 03:56:00,